sensor_id;sensor_type;location;lat;lon;timestamp;pressure;altitude;pressure_sealevel;temperature;humidity
68628;BME280;55611;48.602;9.490;2024-02-28T00:01:24;96820;;;10.6;56.5
68628;BME280;55611;48.602;9.490;2024-02-28T00:03:55;96820;;;10.7;56.5
68628;BME280;55611;48.602;9.490;2024-02-28T00:06:26;96820;;;10.6;56.5
68628;BME280;55611;48.602;9.490;2024-02-28T00:08:57;96820;;;10.6;56.5
68628;BME280;55611;48.602;9.490;2024-02-28T00:11:27;96820;;;10.5;56.5
68628;BME280;55611;48.602;9.490;2024-02-28T00:13:58;96820;;;10.5;56.5
68628;BME280;55611;48.602;9.490;2024-02-28T00:16:29;96820;;;10.5;56.5
68628;BME280;55611;48.602;9.490;2024-02-28T00:19:00;96820;;;10.5;56.5
68628;BME280;55611;48.602;9.490;2024-02-28T00:21:30;96820;;;10.6;56.5
68628;BME280;55611;48.602;9.490;2024-02-28T00:24:01;96820;;;10.6;56.5
68628;BME280;55611;48.602;9.490;2024-02-28T00:26:32;96820;;;10.6;56.5
68628;BME280;55611;48.602;9.490;2024-02-28T00:29:03;96820;;;10.6;56.5
68628;BME280;55611;48.602;9.490;2024-02-28T00:31:34;96820;;;10.6;56.5
68628;BME280;55611;48.602;9.490;2024-02-28T00:34:04;96820;;;10.6;56.5
68628;BME280;55611;48.602;9.490;2024-02-28T00:36:35;96820;;;10.5;56.5
68628;BME280;55611;48.602;9.490;2024-02-28T00:39:06;96820;;;10.5;56.5
68628;BME280;55611;48.602;9.490;2024-02-28T00:41:37;96820;;;10.4;56.5
68628;BME280;55611;48.602;9.490;2024-02-28T00:44:07;96820;;;10.4;56.5
68628;BME280;55611;48.602;9.490;2024-02-28T00:46:39;96820;;;10.5;56.5
68628;BME280;55611;48.602;9.490;2024-02-28T00:49:09;96820;;;10.5;56.5
68628;BME280;55611;48.602;9.490;2024-02-28T00:51:40;96820;;;10.5;56.5
68628;BME280;55611;48.602;9.490;2024-02-28T00:54:11;96830;;;10.5;56.5
68628;BME280;55611;48.602;9.490;2024-02-28T00:56:41;96820;;;10.5;56.5
68628;BME280;55611;48.602;9.490;2024-02-28T00:59:12;96820;;;10.5;56.5
68628;BME280;55611;48.602;9.490;2024-02-28T01:01:43;96820;;;10.5;56.5
68628;BME280;55611;48.602;9.490;2024-02-28T01:04:14;96820;;;10.5;56.5
68628;BME280;55611;48.602;9.490;2024-02-28T01:06:44;96830;;;10.5;56.5
68628;BME280;55611;48.602;9.490;2024-02-28T01:09:15;96830;;;10.5;56.5
68628;BME280;55611;48.602;9.490;2024-02-28T01:11:46;96830;;;10.6;56.5
68628;BME280;55611;48.602;9.490;2024-02-28T01:14:17;96830;;;10.7;56.5
68628;BME280;55611;48.602;9.490;2024-02-28T01:16:47;96820;;;10.7;56
68628;BME280;55611;48.602;9.490;2024-02-28T01:19:18;96820;;;10.6;56
68628;BME280;55611;48.602;9.490;2024-02-28T01:24:20;96820;;;10.6;56
68628;BME280;55611;48.602;9.490;2024-02-28T01:26:51;96820;;;10.6;56
68628;BME280;55611;48.602;9.490;2024-02-28T01:29:21;96820;;;10.5;56
68628;BME280;55611;48.602;9.490;2024-02-28T01:31:52;96820;;;10.5;56
68628;BME280;55611;48.602;9.490;2024-02-28T01:34:23;96830;;;10.5;56
68628;BME280;55611;48.602;9.490;2024-02-28T01:36:54;96830;;;10.5;56
68628;BME280;55611;48.602;9.490;2024-02-28T01:39:24;96830;;;10.6;56
68628;BME280;55611;48.602;9.490;2024-02-28T01:41:55;96830;;;10.6;56
68628;BME280;55611;48.602;9.490;2024-02-28T01:44:26;96830;;;10.6;56
68628;BME280;55611;48.602;9.490;2024-02-28T01:46:57;96830;;;10.6;56
68628;BME280;55611;48.602;9.490;2024-02-28T01:49:28;96840;;;10.5;56
68628;BME280;55611;48.602;9.490;2024-02-28T01:51:58;96840;;;10.5;56
68628;BME280;55611;48.602;9.490;2024-02-28T01:54:29;96840;;;10.5;56
68628;BME280;55611;48.602;9.490;2024-02-28T01:57:00;96840;;;10.5;56
68628;BME280;55611;48.602;9.490;2024-02-28T01:59:31;96850;;;10.5;56
68628;BME280;55611;48.602;9.490;2024-02-28T02:02:02;96850;;;10.5;56
68628;BME280;55611;48.602;9.490;2024-02-28T02:04:32;96850;;;10.5;56
68628;BME280;55611;48.602;9.490;2024-02-28T02:07:03;96860;;;10.6;56
68628;BME280;55611;48.602;9.490;2024-02-28T02:09:34;96850;;;10.6;56
68628;BME280;55611;48.602;9.490;2024-02-28T02:12:05;96860;;;10.6;56
68628;BME280;55611;48.602;9.490;2024-02-28T02:14:35;96860;;;10.5;56.5
68628;BME280;55611;48.602;9.490;2024-02-28T02:17:06;96870;;;10.4;56.5
68628;BME280;55611;48.602;9.490;2024-02-28T02:19:37;96870;;;10.4;56.5
68628;BME280;55611;48.602;9.490;2024-02-28T02:22:08;96880;;;10.3;56.5
68628;BME280;55611;48.602;9.490;2024-02-28T02:24:38;96880;;;10.3;57
68628;BME280;55611;48.602;9.490;2024-02-28T02:27:09;96880;;;10.3;57
68628;BME280;55611;48.602;9.490;2024-02-28T02:29:40;96880;;;10.4;56.5
68628;BME280;55611;48.602;9.490;2024-02-28T02:32:11;96890;;;10.4;56.5
68628;BME280;55611;48.602;9.490;2024-02-28T02:34:41;96890;;;10.4;56.5
68628;BME280;55611;48.602;9.490;2024-02-28T02:37:12;96890;;;10.5;56.5
68628;BME280;55611;48.602;9.490;2024-02-28T02:39:43;96890;;;10.5;56.5
68628;BME280;55611;48.602;9.490;2024-02-28T02:42:14;96890;;;10.5;56.5
68628;BME280;55611;48.602;9.490;2024-02-28T02:44:45;96900;;;10.5;56.5
68628;BME280;55611;48.602;9.490;2024-02-28T02:47:15;96900;;;10.5;56
68628;BME280;55611;48.602;9.490;2024-02-28T02:49:46;96900;;;10.6;56
68628;BME280;55611;48.602;9.490;2024-02-28T02:52:17;96900;;;10.6;56
68628;BME280;55611;48.602;9.490;2024-02-28T02:54:48;96910;;;10.6;56
68628;BME280;55611;48.602;9.490;2024-02-28T02:57:18;96910;;;10.6;56
68628;BME280;55611;48.602;9.490;2024-02-28T02:59:49;96910;;;10.6;56
68628;BME280;55611;48.602;9.490;2024-02-28T03:02:20;96910;;;10.6;56
68628;BME280;55611;48.602;9.490;2024-02-28T03:04:51;96910;;;10.7;56
68628;BME280;55611;48.602;9.490;2024-02-28T03:07:22;96910;;;10.7;56
68628;BME280;55611;48.602;9.490;2024-02-28T03:09:52;96910;;;10.6;56
68628;BME280;55611;48.602;9.490;2024-02-28T03:12:23;96920;;;10.6;56
68628;BME280;55611;48.602;9.490;2024-02-28T03:14:54;96920;;;10.6;56
68628;BME280;55611;48.602;9.490;2024-02-28T03:17:25;96920;;;10.6;56
68628;BME280;55611;48.602;9.490;2024-02-28T03:19:55;96930;;;10.5;56.5
68628;BME280;55611;48.602;9.490;2024-02-28T03:22:26;96940;;;10.5;56.5
68628;BME280;55611;48.602;9.490;2024-02-28T03:24:57;96940;;;10.4;56.5
68628;BME280;55611;48.602;9.490;2024-02-28T03:27:28;96940;;;10.4;56.5
68628;BME280;55611;48.602;9.490;2024-02-28T03:29:59;96950;;;10.4;56.5
68628;BME280;55611;48.602;9.490;2024-02-28T03:32:29;96950;;;10.4;56.5
68628;BME280;55611;48.602;9.490;2024-02-28T03:35:00;96950;;;10.4;56.5
68628;BME280;55611;48.602;9.490;2024-02-28T03:37:31;96960;;;10.3;56.5
68628;BME280;55611;48.602;9.490;2024-02-28T03:40:02;96950;;;10.3;56.5
68628;BME280;55611;48.602;9.490;2024-02-28T03:42:32;96960;;;10.3;56.5
68628;BME280;55611;48.602;9.490;2024-02-28T03:45:03;96960;;;10.3;56.5
68628;BME280;55611;48.602;9.490;2024-02-28T03:47:34;96960;;;10.3;56.5
68628;BME280;55611;48.602;9.490;2024-02-28T03:52:36;96960;;;10.3;56.5
68628;BME280;55611;48.602;9.490;2024-02-28T03:55:06;96960;;;10.2;56.5
68628;BME280;55611;48.602;9.490;2024-02-28T03:57:37;96960;;;10.2;56.5
68628;BME280;55611;48.602;9.490;2024-02-28T04:00:08;96960;;;10.2;56.5
68628;BME280;55611;48.602;9.490;2024-02-28T04:02:39;96960;;;10.3;56.5
68628;BME280;55611;48.602;9.490;2024-02-28T04:05:09;96960;;;10.2;56.5
68628;BME280;55611;48.602;9.490;2024-02-28T04:07:40;96960;;;10.2;56.5
68628;BME280;55611;48.602;9.490;2024-02-28T04:10:11;96970;;;10.2;56.5
68628;BME280;55611;48.602;9.490;2024-02-28T04:12:42;96960;;;10.2;56.5
68628;BME280;55611;48.602;9.490;2024-02-28T04:15:13;96970;;;10.2;56.5
68628;BME280;55611;48.602;9.490;2024-02-28T04:17:43;96970;;;10.3;56.5
68628;BME280;55611;48.602;9.490;2024-02-28T04:20:14;96970;;;10.3;56.5
68628;BME280;55611;48.602;9.490;2024-02-28T04:22:45;96970;;;10.3;56.5
68628;BME280;55611;48.602;9.490;2024-02-28T04:25:16;96970;;;10.3;56.5
68628;BME280;55611;48.602;9.490;2024-02-28T04:27:46;96970;;;10.3;56.5
68628;BME280;55611;48.602;9.490;2024-02-28T04:30:17;96970;;;10.4;56.5
68628;BME280;55611;48.602;9.490;2024-02-28T04:32:48;96980;;;10.4;56
68628;BME280;55611;48.602;9.490;2024-02-28T04:35:19;96980;;;10.4;56
68628;BME280;55611;48.602;9.490;2024-02-28T04:37:49;96980;;;10.4;56.5
68628;BME280;55611;48.602;9.490;2024-02-28T04:40:20;96980;;;10.4;56.5
68628;BME280;55611;48.602;9.490;2024-02-28T04:42:51;96980;;;10.4;56.5
68628;BME280;55611;48.602;9.490;2024-02-28T04:45:22;96990;;;10.4;56.5
68628;BME280;55611;48.602;9.490;2024-02-28T04:47:53;96990;;;10.4;56.5
68628;BME280;55611;48.602;9.490;2024-02-28T04:50:23;97000;;;10.4;56.5
68628;BME280;55611;48.602;9.490;2024-02-28T04:52:54;97000;;;10.4;56.5
68628;BME280;55611;48.602;9.490;2024-02-28T04:55:25;97000;;;10.3;56.5
68628;BME280;55611;48.602;9.490;2024-02-28T04:57:56;97000;;;10.3;56.5
68628;BME280;55611;48.602;9.490;2024-02-28T05:00:26;97000;;;10.2;56.5
68628;BME280;55611;48.602;9.490;2024-02-28T05:02:57;97000;;;10.2;56.5
68628;BME280;55611;48.602;9.490;2024-02-28T05:05:28;97000;;;10.2;56.5
68628;BME280;55611;48.602;9.490;2024-02-28T05:07:59;97010;;;10.2;56.5
68628;BME280;55611;48.602;9.490;2024-02-28T05:10:30;97010;;;10.2;56.5
68628;BME280;55611;48.602;9.490;2024-02-28T05:13:00;97010;;;10.1;56.5
68628;BME280;55611;48.602;9.490;2024-02-28T05:15:31;97020;;;10.1;56.5
68628;BME280;55611;48.602;9.490;2024-02-28T05:18:02;97020;;;10;56.5
68628;BME280;55611;48.602;9.490;2024-02-28T05:20:33;97020;;;10;56.5
68628;BME280;55611;48.602;9.490;2024-02-28T05:23:03;97020;;;10;56.5
68628;BME280;55611;48.602;9.490;2024-02-28T05:25:34;97020;;;10.1;56.5
68628;BME280;55611;48.602;9.490;2024-02-28T05:28:05;97020;;;10.1;56.5
68628;BME280;55611;48.602;9.490;2024-02-28T05:30:36;97020;;;10.1;56.5
68628;BME280;55611;48.602;9.490;2024-02-28T05:33:06;97030;;;10.1;56.5
68628;BME280;55611;48.602;9.490;2024-02-28T05:35:37;97030;;;10.1;56.5
68628;BME280;55611;48.602;9.490;2024-02-28T05:38:08;97030;;;10.1;56.5
68628;BME280;55611;48.602;9.490;2024-02-28T05:40:41;97040;;;10.1;56.5
68628;BME280;55611;48.602;9.490;2024-02-28T05:43:10;97040;;;10.1;56.5
68628;BME280;55611;48.602;9.490;2024-02-28T05:45:40;97050;;;10.2;56.5
68628;BME280;55611;48.602;9.490;2024-02-28T05:48:11;97050;;;10.2;56.5
68628;BME280;55611;48.602;9.490;2024-02-28T05:50:42;97060;;;10.1;56.5
68628;BME280;55611;48.602;9.490;2024-02-28T05:53:13;97060;;;10.1;56.5
68628;BME280;55611;48.602;9.490;2024-02-28T05:55:44;97060;;;10.2;56.5
68628;BME280;55611;48.602;9.490;2024-02-28T05:58:14;97070;;;10.1;56.5
68628;BME280;55611;48.602;9.490;2024-02-28T06:00:45;97070;;;10.1;56.5
68628;BME280;55611;48.602;9.490;2024-02-28T06:03:16;97070;;;10.2;56.5
68628;BME280;55611;48.602;9.490;2024-02-28T06:05:47;97070;;;10.1;56.5
68628;BME280;55611;48.602;9.490;2024-02-28T06:08:17;97070;;;10.2;56.5
68628;BME280;55611;48.602;9.490;2024-02-28T06:10:48;97070;;;10.1;56.5
68628;BME280;55611;48.602;9.490;2024-02-28T06:13:19;97070;;;10.1;56.5
68628;BME280;55611;48.602;9.490;2024-02-28T06:15:50;97080;;;10;56.5
68628;BME280;55611;48.602;9.490;2024-02-28T06:18:20;97080;;;10.1;56.5
68628;BME280;55611;48.602;9.490;2024-02-28T06:20:52;97080;;;10.2;56.5
68628;BME280;55611;48.602;9.490;2024-02-28T06:23:22;97080;;;10.3;56.5
68628;BME280;55611;48.602;9.490;2024-02-28T06:25:53;97080;;;10.3;56.5
68628;BME280;55611;48.602;9.490;2024-02-28T06:28:24;97080;;;10.2;56.5
68628;BME280;55611;48.602;9.490;2024-02-28T06:30:54;97090;;;10.2;56.5
68628;BME280;55611;48.602;9.490;2024-02-28T06:33:25;97090;;;10.2;56.5
68628;BME280;55611;48.602;9.490;2024-02-28T06:35:56;97100;;;10.2;56.5
68628;BME280;55611;48.602;9.490;2024-02-28T06:38:27;97100;;;10.2;56.5
68628;BME280;55611;48.602;9.490;2024-02-28T06:40:57;97100;;;10.2;56.5
68628;BME280;55611;48.602;9.490;2024-02-28T06:43:28;97100;;;10.1;56.5
68628;BME280;55611;48.602;9.490;2024-02-28T06:45:59;97110;;;10.1;56.5
68628;BME280;55611;48.602;9.490;2024-02-28T06:48:30;97120;;;10.1;56.5
68628;BME280;55611;48.602;9.490;2024-02-28T06:51:01;97120;;;10.1;56.5
68628;BME280;55611;48.602;9.490;2024-02-28T06:53:31;97130;;;10.1;56.5
68628;BME280;55611;48.602;9.490;2024-02-28T06:56:02;97130;;;10.1;56.5
68628;BME280;55611;48.602;9.490;2024-02-28T06:58:33;97130;;;10.1;57
68628;BME280;55611;48.602;9.490;2024-02-28T07:01:04;97140;;;9.9;57
68628;BME280;55611;48.602;9.490;2024-02-28T07:03:34;97140;;;9.8;57
68628;BME280;55611;48.602;9.490;2024-02-28T07:06:05;97150;;;9.9;57
68628;BME280;55611;48.602;9.490;2024-02-28T07:08:36;97150;;;9.8;57
68628;BME280;55611;48.602;9.490;2024-02-28T07:11:14;97160;;;9.8;57
68628;BME280;55611;48.602;9.490;2024-02-28T07:13:37;97160;;;9.8;57
68628;BME280;55611;48.602;9.490;2024-02-28T07:16:08;97170;;;9.7;57
68628;BME280;55611;48.602;9.490;2024-02-28T07:18:39;97170;;;9.7;57
68628;BME280;55611;48.602;9.490;2024-02-28T07:21:10;97170;;;9.7;57
68628;BME280;55611;48.602;9.490;2024-02-28T07:23:41;97170;;;9.8;57
68628;BME280;55611;48.602;9.490;2024-02-28T07:26:15;97160;;;9.9;57
68628;BME280;55611;48.602;9.490;2024-02-28T07:28:42;97160;;;9.9;57
68628;BME280;55611;48.602;9.490;2024-02-28T07:31:14;97170;;;10;56.5
68628;BME280;55611;48.602;9.490;2024-02-28T07:33:44;97170;;;10;56.5
68628;BME280;55611;48.602;9.490;2024-02-28T07:36:14;97170;;;10;56.5
68628;BME280;55611;48.602;9.490;2024-02-28T07:38:45;97170;;;9.9;57
68628;BME280;55611;48.602;9.490;2024-02-28T07:41:16;97170;;;10;57
68628;BME280;55611;48.602;9.490;2024-02-28T07:43:47;97170;;;10.1;57
68628;BME280;55611;48.602;9.490;2024-02-28T07:46:18;97180;;;10.1;57
68628;BME280;55611;48.602;9.490;2024-02-28T07:48:48;97180;;;10.1;57
68628;BME280;55611;48.602;9.490;2024-02-28T07:51:19;97180;;;10.2;56.5
68628;BME280;55611;48.602;9.490;2024-02-28T07:53:50;97170;;;10.2;56.5
68628;BME280;55611;48.602;9.490;2024-02-28T07:56:21;97180;;;10.2;56.5
68628;BME280;55611;48.602;9.490;2024-02-28T07:58:51;97180;;;10.2;56.5
68628;BME280;55611;48.602;9.490;2024-02-28T08:01:22;97190;;;10.2;56.5
68628;BME280;55611;48.602;9.490;2024-02-28T08:03:53;97180;;;10.3;57
68628;BME280;55611;48.602;9.490;2024-02-28T08:06:24;97180;;;10.3;56.5
68628;BME280;55611;48.602;9.490;2024-02-28T08:08:55;97180;;;10.3;57
68628;BME280;55611;48.602;9.490;2024-02-28T08:11:25;97180;;;10.2;57
68628;BME280;55611;48.602;9.490;2024-02-28T08:13:56;97180;;;10.2;57
68628;BME280;55611;48.602;9.490;2024-02-28T08:16:27;97190;;;10.3;57
68628;BME280;55611;48.602;9.490;2024-02-28T08:18:58;97190;;;10.2;57
68628;BME280;55611;48.602;9.490;2024-02-28T08:21:28;97200;;;10.3;57
68628;BME280;55611;48.602;9.490;2024-02-28T08:23:59;97200;;;10.3;57
68628;BME280;55611;48.602;9.490;2024-02-28T08:26:30;97210;;;10.3;57
68628;BME280;55611;48.602;9.490;2024-02-28T08:29:01;97200;;;10.3;57
68628;BME280;55611;48.602;9.490;2024-02-28T08:31:31;97210;;;10.2;57
68628;BME280;55611;48.602;9.490;2024-02-28T08:34:02;97210;;;10.2;57
68628;BME280;55611;48.602;9.490;2024-02-28T08:36:33;97210;;;10.2;57
68628;BME280;55611;48.602;9.490;2024-02-28T08:39:04;97210;;;10.2;57
68628;BME280;55611;48.602;9.490;2024-02-28T08:41:35;97210;;;10.2;57
68628;BME280;55611;48.602;9.490;2024-02-28T08:44:05;97220;;;10.1;57
68628;BME280;55611;48.602;9.490;2024-02-28T08:46:36;97220;;;10.1;57
68628;BME280;55611;48.602;9.490;2024-02-28T08:49:07;97210;;;10.1;57
68628;BME280;55611;48.602;9.490;2024-02-28T08:51:38;97220;;;10.1;57
68628;BME280;55611;48.602;9.490;2024-02-28T08:54:08;97210;;;10.2;57
68628;BME280;55611;48.602;9.490;2024-02-28T08:56:39;97210;;;10.3;57
68628;BME280;55611;48.602;9.490;2024-02-28T08:59:10;97220;;;10.3;57
68628;BME280;55611;48.602;9.490;2024-02-28T09:01:41;97220;;;10.3;57
68628;BME280;55611;48.602;9.490;2024-02-28T09:04:12;97220;;;10.3;57
68628;BME280;55611;48.602;9.490;2024-02-28T09:06:42;97220;;;10.2;57
68628;BME280;55611;48.602;9.490;2024-02-28T09:09:13;97220;;;10.2;57
68628;BME280;55611;48.602;9.490;2024-02-28T09:11:44;97220;;;10.2;57
68628;BME280;55611;48.602;9.490;2024-02-28T09:14:15;97220;;;10.2;57
68628;BME280;55611;48.602;9.490;2024-02-28T09:16:45;97230;;;10.2;57
68628;BME280;55611;48.602;9.490;2024-02-28T09:19:16;97230;;;10.2;57
68628;BME280;55611;48.602;9.490;2024-02-28T09:21:47;97230;;;10.2;57
68628;BME280;55611;48.602;9.490;2024-02-28T09:24:18;97240;;;10.2;57
68628;BME280;55611;48.602;9.490;2024-02-28T09:26:49;97230;;;10.2;57
68628;BME280;55611;48.602;9.490;2024-02-28T09:29:19;97230;;;10.3;57
68628;BME280;55611;48.602;9.490;2024-02-28T09:31:50;97230;;;10.4;56.5
68628;BME280;55611;48.602;9.490;2024-02-28T09:34:21;97230;;;10.4;56.5
68628;BME280;55611;48.602;9.490;2024-02-28T09:36:52;97240;;;10.4;56.5
68628;BME280;55611;48.602;9.490;2024-02-28T09:39:22;97230;;;10.4;56.5
68628;BME280;55611;48.602;9.490;2024-02-28T09:41:53;97230;;;10.4;57
68628;BME280;55611;48.602;9.490;2024-02-28T09:44:24;97240;;;10.3;57
68628;BME280;55611;48.602;9.490;2024-02-28T09:46:55;97240;;;10.3;57
68628;BME280;55611;48.602;9.490;2024-02-28T09:49:26;97240;;;10.3;57
68628;BME280;55611;48.602;9.490;2024-02-28T09:51:56;97240;;;10.3;57
68628;BME280;55611;48.602;9.490;2024-02-28T09:54:27;97250;;;10.4;57
68628;BME280;55611;48.602;9.490;2024-02-28T09:56:58;97250;;;10.4;57
68628;BME280;55611;48.602;9.490;2024-02-28T09:59:29;97250;;;10.5;57
68628;BME280;55611;48.602;9.490;2024-02-28T10:01:59;97250;;;10.5;57
68628;BME280;55611;48.602;9.490;2024-02-28T10:04:30;97260;;;10.5;57
68628;BME280;55611;48.602;9.490;2024-02-28T10:07:16;97260;;;10.5;57
68628;BME280;55611;48.602;9.490;2024-02-28T10:09:32;97260;;;10.5;57
68628;BME280;55611;48.602;9.490;2024-02-28T10:12:03;97260;;;10.4;57
68628;BME280;55611;48.602;9.490;2024-02-28T10:14:33;97270;;;10.5;57
68628;BME280;55611;48.602;9.490;2024-02-28T10:17:04;97270;;;10.5;57
68628;BME280;55611;48.602;9.490;2024-02-28T10:19:35;97270;;;10.5;57
68628;BME280;55611;48.602;9.490;2024-02-28T10:22:06;97270;;;10.5;57
68628;BME280;55611;48.602;9.490;2024-02-28T10:24:36;97270;;;10.4;57
68628;BME280;55611;48.602;9.490;2024-02-28T10:27:07;97270;;;10.4;57
68628;BME280;55611;48.602;9.490;2024-02-28T10:29:38;97270;;;10.4;57
68628;BME280;55611;48.602;9.490;2024-02-28T10:32:09;97270;;;10.5;57
68628;BME280;55611;48.602;9.490;2024-02-28T10:34:40;97270;;;10.5;57
68628;BME280;55611;48.602;9.490;2024-02-28T10:37:10;97270;;;10.6;57
68628;BME280;55611;48.602;9.490;2024-02-28T10:39:41;97270;;;10.7;57
68628;BME280;55611;48.602;9.490;2024-02-28T10:42:12;97270;;;10.6;57
68628;BME280;55611;48.602;9.490;2024-02-28T10:44:43;97280;;;10.7;57
68628;BME280;55611;48.602;9.490;2024-02-28T10:47:13;97270;;;10.7;56.5
68628;BME280;55611;48.602;9.490;2024-02-28T10:49:44;97270;;;10.8;56.5
68628;BME280;55611;48.602;9.490;2024-02-28T10:52:15;97280;;;10.8;56.5
68628;BME280;55611;48.602;9.490;2024-02-28T10:54:46;97290;;;10.6;57
68628;BME280;55611;48.602;9.490;2024-02-28T10:57:16;97290;;;10.6;57
68628;BME280;55611;48.602;9.490;2024-02-28T10:59:47;97300;;;10.5;57
68628;BME280;55611;48.602;9.490;2024-02-28T11:02:18;97300;;;10.4;57
68628;BME280;55611;48.602;9.490;2024-02-28T11:04:51;97300;;;10.4;57
68628;BME280;55611;48.602;9.490;2024-02-28T11:07:20;97300;;;10.3;57
68628;BME280;55611;48.602;9.490;2024-02-28T11:09:54;97300;;;10.4;57
68628;BME280;55611;48.602;9.490;2024-02-28T11:12:25;97300;;;10.5;57
68628;BME280;55611;48.602;9.490;2024-02-28T11:14:59;97290;;;10.5;57
68628;BME280;55611;48.602;9.490;2024-02-28T11:17:25;97290;;;10.6;57
68628;BME280;55611;48.602;9.490;2024-02-28T11:19:53;97290;;;10.6;57
68628;BME280;55611;48.602;9.490;2024-02-28T11:22:27;97290;;;10.7;56.5
68628;BME280;55611;48.602;9.490;2024-02-28T11:24:55;97290;;;10.7;56.5
68628;BME280;55611;48.602;9.490;2024-02-28T11:27:26;97290;;;10.8;56.5
68628;BME280;55611;48.602;9.490;2024-02-28T11:29:57;97290;;;10.9;56.5
68628;BME280;55611;48.602;9.490;2024-02-28T11:32:29;97290;;;10.9;57
68628;BME280;55611;48.602;9.490;2024-02-28T11:35:00;97290;;;11;57
68628;BME280;55611;48.602;9.490;2024-02-28T11:37:29;97290;;;11;57
68628;BME280;55611;48.602;9.490;2024-02-28T11:40:00;97300;;;10.9;57
68628;BME280;55611;48.602;9.490;2024-02-28T11:42:30;97300;;;10.8;57
68628;BME280;55611;48.602;9.490;2024-02-28T11:45:01;97290;;;10.8;57
68628;BME280;55611;48.602;9.490;2024-02-28T11:47:32;97300;;;10.8;57
68628;BME280;55611;48.602;9.490;2024-02-28T11:50:03;97300;;;10.7;57
68628;BME280;55611;48.602;9.490;2024-02-28T11:52:34;97300;;;10.7;57
68628;BME280;55611;48.602;9.490;2024-02-28T11:55:04;97300;;;10.7;57
68628;BME280;55611;48.602;9.490;2024-02-28T11:57:36;97300;;;10.6;57
68628;BME280;55611;48.602;9.490;2024-02-28T12:00:06;97310;;;10.6;57
68628;BME280;55611;48.602;9.490;2024-02-28T12:02:37;97310;;;10.5;57
68628;BME280;55611;48.602;9.490;2024-02-28T12:05:07;97300;;;10.5;57
68628;BME280;55611;48.602;9.490;2024-02-28T12:07:38;97310;;;10.4;57
68628;BME280;55611;48.602;9.490;2024-02-28T12:10:09;97310;;;10.4;57
68628;BME280;55611;48.602;9.490;2024-02-28T12:15:10;97310;;;10.4;57
68628;BME280;55611;48.602;9.490;2024-02-28T12:20:12;97300;;;10.6;56.5
68628;BME280;55611;48.602;9.490;2024-02-28T12:22:43;97290;;;10.7;56.5
68628;BME280;55611;48.602;9.490;2024-02-28T12:25:13;97300;;;10.8;56.5
68628;BME280;55611;48.602;9.490;2024-02-28T12:27:44;97290;;;10.8;56.5
68628;BME280;55611;48.602;9.490;2024-02-28T12:30:15;97300;;;10.8;56.5
68628;BME280;55611;48.602;9.490;2024-02-28T12:32:52;97290;;;10.7;56.5
68628;BME280;55611;48.602;9.490;2024-02-28T12:35:23;97290;;;10.7;56.5
68628;BME280;55611;48.602;9.490;2024-02-28T12:40:18;97290;;;10.7;56.5
68628;BME280;55611;48.602;9.490;2024-02-28T12:42:49;97290;;;10.7;56.5
68628;BME280;55611;48.602;9.490;2024-02-28T12:45:19;97290;;;10.8;56.5
68628;BME280;55611;48.602;9.490;2024-02-28T12:47:50;97290;;;10.8;56.5
68628;BME280;55611;48.602;9.490;2024-02-28T12:50:21;97290;;;10.8;56.5
68628;BME280;55611;48.602;9.490;2024-02-28T12:52:52;97290;;;10.8;56.5
68628;BME280;55611;48.602;9.490;2024-02-28T12:55:23;97290;;;10.9;56.5
68628;BME280;55611;48.602;9.490;2024-02-28T12:57:53;97290;;;10.8;56.5
68628;BME280;55611;48.602;9.490;2024-02-28T13:00:24;97290;;;10.8;56.5
68628;BME280;55611;48.602;9.490;2024-02-28T13:02:55;97290;;;10.9;56.5
68628;BME280;55611;48.602;9.490;2024-02-28T13:05:26;97280;;;10.9;56.5
68628;BME280;55611;48.602;9.490;2024-02-28T13:07:56;97280;;;11;56.5
68628;BME280;55611;48.602;9.490;2024-02-28T13:10:27;97280;;;10.9;56.5
68628;BME280;55611;48.602;9.490;2024-02-28T13:12:58;97280;;;10.9;56.5
68628;BME280;55611;48.602;9.490;2024-02-28T13:15:29;97280;;;10.9;56.5
68628;BME280;55611;48.602;9.490;2024-02-28T13:18:00;97280;;;10.8;56.5
68628;BME280;55611;48.602;9.490;2024-02-28T13:20:30;97280;;;10.8;56.5
68628;BME280;55611;48.602;9.490;2024-02-28T13:23:01;97280;;;10.8;56.5
68628;BME280;55611;48.602;9.490;2024-02-28T13:25:32;97280;;;10.8;56.5
68628;BME280;55611;48.602;9.490;2024-02-28T13:28:03;97280;;;10.7;56.5
68628;BME280;55611;48.602;9.490;2024-02-28T13:30:33;97280;;;10.8;56.5
68628;BME280;55611;48.602;9.490;2024-02-28T13:33:04;97280;;;10.8;56.5
68628;BME280;55611;48.602;9.490;2024-02-28T13:35:35;97280;;;10.8;56.5
68628;BME280;55611;48.602;9.490;2024-02-28T13:38:06;97280;;;10.7;56.5
68628;BME280;55611;48.602;9.490;2024-02-28T13:40:37;97270;;;10.7;56.5
68628;BME280;55611;48.602;9.490;2024-02-28T13:43:07;97270;;;10.8;56.5
68628;BME280;55611;48.602;9.490;2024-02-28T13:45:38;97270;;;10.7;56.5
68628;BME280;55611;48.602;9.490;2024-02-28T13:48:14;97270;;;10.7;56.5
68628;BME280;55611;48.602;9.490;2024-02-28T13:50:40;97280;;;10.7;56.5
68628;BME280;55611;48.602;9.490;2024-02-28T13:53:11;97270;;;10.6;56.5
68628;BME280;55611;48.602;9.490;2024-02-28T13:55:41;97270;;;10.6;56.5
68628;BME280;55611;48.602;9.490;2024-02-28T13:58:12;97270;;;10.6;57
68628;BME280;55611;48.602;9.490;2024-02-28T14:00:43;97280;;;10.5;57
68628;BME280;55611;48.602;9.490;2024-02-28T14:03:14;97280;;;10.5;57
68628;BME280;55611;48.602;9.490;2024-02-28T14:05:44;97280;;;10.4;57
68628;BME280;55611;48.602;9.490;2024-02-28T14:08:15;97290;;;10.4;57
68628;BME280;55611;48.602;9.490;2024-02-28T14:10:46;97280;;;10.4;57
68628;BME280;55611;48.602;9.490;2024-02-28T14:13:17;97280;;;10.4;57
68628;BME280;55611;48.602;9.490;2024-02-28T14:15:47;97280;;;10.5;57
68628;BME280;55611;48.602;9.490;2024-02-28T14:18:18;97280;;;10.5;57
68628;BME280;55611;48.602;9.490;2024-02-28T14:20:50;97270;;;10.6;57
68628;BME280;55611;48.602;9.490;2024-02-28T14:23:20;97270;;;10.7;57
68628;BME280;55611;48.602;9.490;2024-02-28T14:25:50;97270;;;10.7;56.5
68628;BME280;55611;48.602;9.490;2024-02-28T14:28:21;97270;;;10.8;56.5
68628;BME280;55611;48.602;9.490;2024-02-28T14:30:52;97270;;;10.8;56.5
68628;BME280;55611;48.602;9.490;2024-02-28T14:33:23;97270;;;10.9;56.5
68628;BME280;55611;48.602;9.490;2024-02-28T14:35:54;97270;;;10.9;56.5
68628;BME280;55611;48.602;9.490;2024-02-28T14:38:24;97280;;;10.9;56.5
68628;BME280;55611;48.602;9.490;2024-02-28T14:40:55;97280;;;10.8;56.5